sensor_id;sensor_type;location;lat;lon;timestamp;pressure;altitude;pressure_sealevel;temperature;humidity
10700;BME280;5401;41.986;21.452;2023-04-08T00:02:11;98502.47;;;8.91;46.96
10700;BME280;5401;41.986;21.452;2023-04-08T00:04:39;98495.63;;;8.82;47.11
10700;BME280;5401;41.986;21.452;2023-04-08T00:07:07;98498.69;;;8.79;47.47
10700;BME280;5401;41.986;21.452;2023-04-08T00:09:37;98503.22;;;8.79;47.08
10700;BME280;5401;41.986;21.452;2023-04-08T00:12:05;98503.41;;;8.77;46.97
10700;BME280;5401;41.986;21.452;2023-04-08T00:14:34;98507.94;;;8.77;46.73
10700;BME280;5401;41.986;21.452;2023-04-08T00:17:03;98494.38;;;8.78;46.44
10700;BME280;5401;41.986;21.452;2023-04-08T00:19:32;98493.75;;;8.76;47.37
10700;BME280;5401;41.986;21.452;2023-04-08T00:22:01;98497.25;;;8.77;47.81
10700;BME280;5401;41.986;21.452;2023-04-08T00:24:29;98498.06;;;8.77;47.60
10700;BME280;5401;41.986;21.452;2023-04-08T00:26:59;98507.09;;;8.76;47.81
10700;BME280;5401;41.986;21.452;2023-04-08T00:29:28;98501.13;;;8.74;47.42
10700;BME280;5401;41.986;21.452;2023-04-08T00:31:56;98506.47;;;8.74;47.84
10700;BME280;5401;41.986;21.452;2023-04-08T00:34:24;98507.50;;;8.73;47.47
10700;BME280;5401;41.986;21.452;2023-04-08T00:36:52;98514.88;;;8.71;47.41
10700;BME280;5401;41.986;21.452;2023-04-08T00:39:20;98516.72;;;8.71;47.12
10700;BME280;5401;41.986;21.452;2023-04-08T00:41:47;98512.56;;;8.68;47.92
10700;BME280;5401;41.986;21.452;2023-04-08T00:44:16;98524.09;;;8.69;47.85
10700;BME280;5401;41.986;21.452;2023-04-08T00:46:43;98523.25;;;8.68;47.43
10700;BME280;5401;41.986;21.452;2023-04-08T00:49:12;98521.63;;;8.67;47.43
10700;BME280;5401;41.986;21.452;2023-04-08T00:51:40;98518.13;;;8.67;47.40
10700;BME280;5401;41.986;21.452;2023-04-08T00:54:07;98519.56;;;8.63;48.14
10700;BME280;5401;41.986;21.452;2023-04-08T00:56:35;98518.91;;;8.61;47.36
10700;BME280;5401;41.986;21.452;2023-04-08T00:59:03;98515.63;;;8.59;47.39
10700;BME280;5401;41.986;21.452;2023-04-08T01:01:37;98505.13;;;8.57;47.99
10700;BME280;5401;41.986;21.452;2023-04-08T01:04:13;98518.03;;;8.54;48.30
10700;BME280;5401;41.986;21.452;2023-04-08T01:06:48;98513.09;;;8.51;48.08
10700;BME280;5401;41.986;21.452;2023-04-08T01:09:18;98514.50;;;8.47;48.39
10700;BME280;5401;41.986;21.452;2023-04-08T01:11:49;98518.78;;;8.42;47.42
10700;BME280;5401;41.986;21.452;2023-04-08T01:14:20;98526.38;;;8.38;47.72
10700;BME280;5401;41.986;21.452;2023-04-08T01:16:54;98507.44;;;8.33;47.60
10700;BME280;5401;41.986;21.452;2023-04-08T01:19:28;98512.91;;;8.25;48.43
10700;BME280;5401;41.986;21.452;2023-04-08T01:22:02;98510.22;;;8.19;48.84
10700;BME280;5401;41.986;21.452;2023-04-08T01:24:35;98517.53;;;8.11;47.98
10700;BME280;5401;41.986;21.452;2023-04-08T01:27:08;98520.75;;;8.06;48.08
10700;BME280;5401;41.986;21.452;2023-04-08T01:29:36;98519.47;;;8.02;48.75
10700;BME280;5401;41.986;21.452;2023-04-08T01:32:07;98532.59;;;8.04;49.38
10700;BME280;5401;41.986;21.452;2023-04-08T01:34:35;98531.78;;;8.03;49.14
10700;BME280;5401;41.986;21.452;2023-04-08T01:37:03;98511.63;;;7.94;48.57
10700;BME280;5401;41.986;21.452;2023-04-08T01:39:33;98529.28;;;8.02;48.58
10700;BME280;5401;41.986;21.452;2023-04-08T01:42:01;98527.44;;;7.96;49.04
10700;BME280;5401;41.986;21.452;2023-04-08T01:44:31;98527.16;;;7.91;49.16
10700;BME280;5401;41.986;21.452;2023-04-08T01:46:59;98518.72;;;7.87;49.22
10700;BME280;5401;41.986;21.452;2023-04-08T01:49:29;98528.09;;;7.83;49.26
10700;BME280;5401;41.986;21.452;2023-04-08T01:51:57;98536.91;;;7.78;49.25
10700;BME280;5401;41.986;21.452;2023-04-08T01:54:26;98526.59;;;7.75;49.43
10700;BME280;5401;41.986;21.452;2023-04-08T01:56:54;98529.84;;;7.70;49.67
10700;BME280;5401;41.986;21.452;2023-04-08T01:59:28;98526.38;;;7.70;49.68
10700;BME280;5401;41.986;21.452;2023-04-08T02:01:58;98538.66;;;7.71;49.57
10700;BME280;5401;41.986;21.452;2023-04-08T02:04:26;98540.50;;;7.70;49.33
10700;BME280;5401;41.986;21.452;2023-04-08T02:06:55;98538.03;;;7.69;49.21
10700;BME280;5401;41.986;21.452;2023-04-08T02:09:23;98540.22;;;7.65;49.95
10700;BME280;5401;41.986;21.452;2023-04-08T02:11:51;98536.28;;;7.61;49.43
10700;BME280;5401;41.986;21.452;2023-04-08T02:14:19;98536.88;;;7.57;49.91
10700;BME280;5401;41.986;21.452;2023-04-08T02:16:50;98537.84;;;7.49;50.12
10700;BME280;5401;41.986;21.452;2023-04-08T02:19:24;98545.19;;;7.47;49.91
10700;BME280;5401;41.986;21.452;2023-04-08T02:22:04;98538.31;;;7.39;49.68
10700;BME280;5401;41.986;21.452;2023-04-08T02:24:32;98540.72;;;7.34;49.88
10700;BME280;5401;41.986;21.452;2023-04-08T02:27:03;98540.44;;;7.29;50.21
10700;BME280;5401;41.986;21.452;2023-04-08T02:29:31;98538.91;;;7.20;50.26
10700;BME280;5401;41.986;21.452;2023-04-08T02:32:00;98531.84;;;7.12;50.37
10700;BME280;5401;41.986;21.452;2023-04-08T02:34:29;98537.84;;;7.00;50.17
10700;BME280;5401;41.986;21.452;2023-04-08T02:36:58;98527.41;;;6.84;50.78
10700;BME280;5401;41.986;21.452;2023-04-08T02:39:30;98531.81;;;6.77;50.89
10700;BME280;5401;41.986;21.452;2023-04-08T02:41:58;98532.47;;;6.79;51.01
10700;BME280;5401;41.986;21.452;2023-04-08T02:44:25;98533.91;;;6.82;50.99
10700;BME280;5401;41.986;21.452;2023-04-08T02:46:53;98530.06;;;6.84;50.91
10700;BME280;5401;41.986;21.452;2023-04-08T02:49:20;98535.38;;;6.84;51.08
10700;BME280;5401;41.986;21.452;2023-04-08T02:51:49;98521.25;;;6.84;51.34
10700;BME280;5401;41.986;21.452;2023-04-08T02:54:17;98521.06;;;6.85;50.94
10700;BME280;5401;41.986;21.452;2023-04-08T02:56:44;98516.97;;;6.83;51.21
10700;BME280;5401;41.986;21.452;2023-04-08T02:59:12;98524.31;;;6.81;51.01
10700;BME280;5401;41.986;21.452;2023-04-08T03:01:39;98522.63;;;6.80;51.32
10700;BME280;5401;41.986;21.452;2023-04-08T03:04:07;98524.31;;;6.81;51.42
10700;BME280;5401;41.986;21.452;2023-04-08T03:06:34;98526.97;;;6.81;51.36
10700;BME280;5401;41.986;21.452;2023-04-08T03:09:03;98532.28;;;6.81;51.34
10700;BME280;5401;41.986;21.452;2023-04-08T03:11:31;98535.13;;;6.79;51.33
10700;BME280;5401;41.986;21.452;2023-04-08T03:13:58;98528.50;;;6.75;51.52
10700;BME280;5401;41.986;21.452;2023-04-08T03:16:26;98530.28;;;6.69;51.65
10700;BME280;5401;41.986;21.452;2023-04-08T03:18:53;98529.63;;;6.67;51.58
10700;BME280;5401;41.986;21.452;2023-04-08T03:21:21;98529.00;;;6.65;51.55
10700;BME280;5401;41.986;21.452;2023-04-08T03:23:48;98532.47;;;6.65;51.55
10700;BME280;5401;41.986;21.452;2023-04-08T03:26:17;98530.81;;;6.64;51.58
10700;BME280;5401;41.986;21.452;2023-04-08T03:28:45;98537.31;;;6.62;51.68
10700;BME280;5401;41.986;21.452;2023-04-08T03:31:12;98539.16;;;6.61;51.71
10700;BME280;5401;41.986;21.452;2023-04-08T03:33:40;98541.00;;;6.61;51.77
10700;BME280;5401;41.986;21.452;2023-04-08T03:36:07;98536.03;;;6.58;51.62
10700;BME280;5401;41.986;21.452;2023-04-08T03:38:34;98537.41;;;6.54;51.84
10700;BME280;5401;41.986;21.452;2023-04-08T03:41:02;98540.06;;;6.54;51.97
10700;BME280;5401;41.986;21.452;2023-04-08T03:43:31;98535.38;;;6.56;51.93
10700;BME280;5401;41.986;21.452;2023-04-08T03:45:58;98540.06;;;6.54;52.06
10700;BME280;5401;41.986;21.452;2023-04-08T03:48:26;98545.56;;;6.52;52.10
10700;BME280;5401;41.986;21.452;2023-04-08T03:50:53;98539.25;;;6.53;52.05
10700;BME280;5401;41.986;21.452;2023-04-08T03:53:21;98546.19;;;6.54;52.21
10700;BME280;5401;41.986;21.452;2023-04-08T03:55:48;98536.75;;;6.52;52.28
10700;BME280;5401;41.986;21.452;2023-04-08T03:58:16;98543.28;;;6.49;52.31
10700;BME280;5401;41.986;21.452;2023-04-08T04:00:45;98542.28;;;6.50;52.34
10700;BME280;5401;41.986;21.452;2023-04-08T04:03:13;98546.59;;;6.51;52.39
10700;BME280;5401;41.986;21.452;2023-04-08T04:05:40;98552.72;;;6.52;52.40
10700;BME280;5401;41.986;21.452;2023-04-08T04:08:07;98546.19;;;6.54;52.51
10700;BME280;5401;41.986;21.452;2023-04-08T04:10:35;98543.19;;;6.57;52.36
10700;BME280;5401;41.986;21.452;2023-04-08T04:13:02;98548.34;;;6.59;52.74
10700;BME280;5401;41.986;21.452;2023-04-08T04:15:30;98557.94;;;6.60;52.44
10700;BME280;5401;41.986;21.452;2023-04-08T04:17:59;98553.91;;;6.64;52.43
10700;BME280;5401;41.986;21.452;2023-04-08T04:20:28;98533.56;;;6.56;52.64
10700;BME280;5401;41.986;21.452;2023-04-08T04:22:55;98562.53;;;6.66;52.38
10700;BME280;5401;41.986;21.452;2023-04-08T04:25:23;98558.50;;;6.70;52.38
10700;BME280;5401;41.986;21.452;2023-04-08T04:27:50;98556.88;;;6.69;52.39
10700;BME280;5401;41.986;21.452;2023-04-08T04:30:18;98559.88;;;6.66;52.31
10700;BME280;5401;41.986;21.452;2023-04-08T04:32:45;98568.97;;;6.71;52.48
10700;BME280;5401;41.986;21.452;2023-04-08T04:35:14;98555.13;;;6.75;52.48
10700;BME280;5401;41.986;21.452;2023-04-08T04:37:41;98559.25;;;6.78;52.44
10700;BME280;5401;41.986;21.452;2023-04-08T04:40:09;98562.63;;;6.86;52.59
10700;BME280;5401;41.986;21.452;2023-04-08T04:42:37;98566.00;;;6.95;52.33
10700;BME280;5401;41.986;21.452;2023-04-08T04:45:05;98559.13;;;7.00;52.08
10700;BME280;5401;41.986;21.452;2023-04-08T04:47:33;98565.56;;;7.06;52.29
10700;BME280;5401;41.986;21.452;2023-04-08T04:50:01;98562.69;;;7.21;51.63
10700;BME280;5401;41.986;21.452;2023-04-08T04:52:30;98568.25;;;7.41;51.96
10700;BME280;5401;41.986;21.452;2023-04-08T04:54:57;98541.78;;;7.39;51.81
10700;BME280;5401;41.986;21.452;2023-04-08T04:57:25;98570.00;;;7.69;51.77
10700;BME280;5401;41.986;21.452;2023-04-08T04:59:52;98573.69;;;7.88;50.93
10700;BME280;5401;41.986;21.452;2023-04-08T05:02:20;98570.31;;;8.21;51.44
10700;BME280;5401;41.986;21.452;2023-04-08T05:04:47;98581.34;;;8.66;50.08
10700;BME280;5401;41.986;21.452;2023-04-08T05:07:15;98576.50;;;9.16;50.38
10700;BME280;5401;41.986;21.452;2023-04-08T05:09:44;98583.41;;;9.44;50.15
10700;BME280;5401;41.986;21.452;2023-04-08T05:12:11;98577.31;;;9.63;49.66
10700;BME280;5401;41.986;21.452;2023-04-08T05:14:39;98576.22;;;10.04;49.43
10700;BME280;5401;41.986;21.452;2023-04-08T05:17:07;98576.25;;;10.49;48.94
10700;BME280;5401;41.986;21.452;2023-04-08T05:19:34;98575.28;;;11.25;48.13
10700;BME280;5401;41.986;21.452;2023-04-08T05:22:02;98578.06;;;12.23;47.53
10700;BME280;5401;41.986;21.452;2023-04-08T05:24:29;98577.00;;;13.03;45.91
10700;BME280;5401;41.986;21.452;2023-04-08T05:26:58;98571.31;;;13.29;45.40
10700;BME280;5401;41.986;21.452;2023-04-08T05:29:27;98572.69;;;13.85;44.67
10700;BME280;5401;41.986;21.452;2023-04-08T05:31:54;98581.63;;;14.55;43.92
10700;BME280;5401;41.986;21.452;2023-04-08T05:34:22;98568.31;;;15.28;43.70
10700;BME280;5401;41.986;21.452;2023-04-08T05:36:49;98582.47;;;15.85;43.00
10700;BME280;5401;41.986;21.452;2023-04-08T05:39:18;98581.81;;;16.05;42.51
10700;BME280;5401;41.986;21.452;2023-04-08T05:41:45;98581.41;;;16.25;42.10
10700;BME280;5401;41.986;21.452;2023-04-08T05:44:14;98585.31;;;16.61;41.91
10700;BME280;5401;41.986;21.452;2023-04-08T05:46:42;98583.00;;;16.70;42.10
10700;BME280;5401;41.986;21.452;2023-04-08T05:49:09;98588.53;;;16.91;41.89
10700;BME280;5401;41.986;21.452;2023-04-08T05:51:37;98591.13;;;17.02;40.80
10700;BME280;5401;41.986;21.452;2023-04-08T05:54:05;98590.88;;;17.04;40.83
10700;BME280;5401;41.986;21.452;2023-04-08T05:56:32;98592.59;;;17.10;41.54
10700;BME280;5401;41.986;21.452;2023-04-08T05:59:00;98598.00;;;17.26;41.30
10700;BME280;5401;41.986;21.452;2023-04-08T06:01:29;98587.16;;;17.42;41.24
10700;BME280;5401;41.986;21.452;2023-04-08T06:03:57;98592.59;;;17.63;40.21
10700;BME280;5401;41.986;21.452;2023-04-08T06:06:25;98576.13;;;17.49;40.51
10700;BME280;5401;41.986;21.452;2023-04-08T06:08:52;98586.44;;;17.30;40.83
10700;BME280;5401;41.986;21.452;2023-04-08T06:11:19;98568.16;;;17.37;40.76
10700;BME280;5401;41.986;21.452;2023-04-08T06:13:47;98572.78;;;18.05;40.46
10700;BME280;5401;41.986;21.452;2023-04-08T06:16:16;98582.09;;;18.35;39.37
10700;BME280;5401;41.986;21.452;2023-04-08T06:18:45;98584.91;;;18.45;39.08
10700;BME280;5401;41.986;21.452;2023-04-08T06:21:12;98574.59;;;18.42;39.86
10700;BME280;5401;41.986;21.452;2023-04-08T06:23:41;98583.66;;;18.58;39.73
10700;BME280;5401;41.986;21.452;2023-04-08T06:26:08;98578.19;;;18.79;39.06
10700;BME280;5401;41.986;21.452;2023-04-08T06:28:36;98577.75;;;18.60;39.11
10700;BME280;5401;41.986;21.452;2023-04-08T06:31:03;98566.38;;;18.37;39.49
10700;BME280;5401;41.986;21.452;2023-04-08T06:33:31;98578.66;;;18.71;38.96
10700;BME280;5401;41.986;21.452;2023-04-08T06:36:03;98566.50;;;19.09;38.59
10700;BME280;5401;41.986;21.452;2023-04-08T06:38:33;98576.78;;;19.43;37.87
10700;BME280;5401;41.986;21.452;2023-04-08T06:41:03;98572.28;;;19.64;37.63
10700;BME280;5401;41.986;21.452;2023-04-08T06:43:31;98576.34;;;19.66;37.42
10700;BME280;5401;41.986;21.452;2023-04-08T06:45:59;98569.94;;;19.36;37.90
10700;BME280;5401;41.986;21.452;2023-04-08T06:48:26;98566.84;;;19.23;37.82
10700;BME280;5401;41.986;21.452;2023-04-08T06:50:55;98571.00;;;19.30;37.48
10700;BME280;5401;41.986;21.452;2023-04-08T06:53:24;98570.50;;;19.38;37.22
10700;BME280;5401;41.986;21.452;2023-04-08T06:55:54;98574.50;;;19.30;37.68
10700;BME280;5401;41.986;21.452;2023-04-08T06:58:21;98565.00;;;19.28;37.08
10700;BME280;5401;41.986;21.452;2023-04-08T07:00:55;98568.81;;;19.27;37.69
10700;BME280;5401;41.986;21.452;2023-04-08T07:03:23;98569.72;;;19.06;37.54
10700;BME280;5401;41.986;21.452;2023-04-08T07:05:51;98568.63;;;19.02;37.57
10700;BME280;5401;41.986;21.452;2023-04-08T07:08:18;98575.31;;;18.64;37.84
10700;BME280;5401;41.986;21.452;2023-04-08T07:10:47;98585.22;;;18.23;38.46
10700;BME280;5401;41.986;21.452;2023-04-08T07:13:15;98577.03;;;17.96;37.88
10700;BME280;5401;41.986;21.452;2023-04-08T07:15:42;98584.91;;;17.98;37.90
10700;BME280;5401;41.986;21.452;2023-04-08T07:18:11;98581.19;;;17.83;37.89
10700;BME280;5401;41.986;21.452;2023-04-08T07:20:39;98589.44;;;17.71;37.75
10700;BME280;5401;41.986;21.452;2023-04-08T07:23:07;98589.28;;;17.78;37.90
10700;BME280;5401;41.986;21.452;2023-04-08T07:25:34;98593.47;;;17.69;37.97
10700;BME280;5401;41.986;21.452;2023-04-08T07:28:03;98589.50;;;17.55;38.52
10700;BME280;5401;41.986;21.452;2023-04-08T07:30:31;98589.78;;;17.96;37.76
10700;BME280;5401;41.986;21.452;2023-04-08T07:32:58;98569.63;;;18.08;37.80
10700;BME280;5401;41.986;21.452;2023-04-08T07:35:26;98583.31;;;18.49;37.65
10700;BME280;5401;41.986;21.452;2023-04-08T07:37:54;98580.38;;;18.82;37.81
10700;BME280;5401;41.986;21.452;2023-04-08T07:40:22;98592.88;;;19.14;37.08
10700;BME280;5401;41.986;21.452;2023-04-08T07:42:50;98575.75;;;18.82;36.94
10700;BME280;5401;41.986;21.452;2023-04-08T07:45:21;98579.56;;;18.50;36.97
10700;BME280;5401;41.986;21.452;2023-04-08T07:47:48;98593.72;;;18.10;38.11
10700;BME280;5401;41.986;21.452;2023-04-08T07:50:16;98585.00;;;17.44;38.07
10700;BME280;5401;41.986;21.452;2023-04-08T07:52:43;98588.91;;;16.99;38.90
10700;BME280;5401;41.986;21.452;2023-04-08T07:55:11;98590.25;;;16.80;39.13
10700;BME280;5401;41.986;21.452;2023-04-08T07:57:39;98581.03;;;16.98;38.94
10700;BME280;5401;41.986;21.452;2023-04-08T08:00:07;98586.28;;;17.20;38.33
10700;BME280;5401;41.986;21.452;2023-04-08T08:02:36;98586.69;;;17.66;38.60
10700;BME280;5401;41.986;21.452;2023-04-08T08:05:04;98588.44;;;17.56;38.25
10700;BME280;5401;41.986;21.452;2023-04-08T08:07:32;98582.28;;;17.82;37.41
10700;BME280;5401;41.986;21.452;2023-04-08T08:10:00;98581.38;;;18.45;37.23
10700;BME280;5401;41.986;21.452;2023-04-08T08:12:27;98573.38;;;18.59;36.68
10700;BME280;5401;41.986;21.452;2023-04-08T08:14:55;98575.75;;;18.51;37.04
10700;BME280;5401;41.986;21.452;2023-04-08T08:17:24;98577.34;;;18.47;36.85
10700;BME280;5401;41.986;21.452;2023-04-08T08:19:56;98562.28;;;18.30;36.15
10700;BME280;5401;41.986;21.452;2023-04-08T08:22:24;98574.31;;;18.44;37.22
10700;BME280;5401;41.986;21.452;2023-04-08T08:24:54;98567.31;;;18.48;36.47
10700;BME280;5401;41.986;21.452;2023-04-08T08:27:22;98584.44;;;18.53;36.95
10700;BME280;5401;41.986;21.452;2023-04-08T08:29:50;98586.25;;;18.43;36.24
10700;BME280;5401;41.986;21.452;2023-04-08T08:32:18;98579.25;;;18.47;36.94
10700;BME280;5401;41.986;21.452;2023-04-08T08:34:45;98569.41;;;18.41;36.70
10700;BME280;5401;41.986;21.452;2023-04-08T08:37:14;98567.84;;;18.45;37.16
10700;BME280;5401;41.986;21.452;2023-04-08T08:39:42;98572.13;;;18.41;36.87
10700;BME280;5401;41.986;21.452;2023-04-08T08:42:18;98563.47;;;18.18;36.67
10700;BME280;5401;41.986;21.452;2023-04-08T08:44:46;98566.81;;;18.24;36.38
10700;BME280;5401;41.986;21.452;2023-04-08T08:47:14;98566.25;;;18.23;37.15
10700;BME280;5401;41.986;21.452;2023-04-08T08:49:42;98557.34;;;18.53;36.79
10700;BME280;5401;41.986;21.452;2023-04-08T08:52:10;98549.09;;;18.74;36.53
10700;BME280;5401;41.986;21.452;2023-04-08T08:54:43;98562.94;;;19.04;36.38
10700;BME280;5401;41.986;21.452;2023-04-08T08:57:18;98550.56;;;19.18;36.10
10700;BME280;5401;41.986;21.452;2023-04-08T08:59:46;98549.13;;;19.51;35.80
10700;BME280;5401;41.986;21.452;2023-04-08T09:02:24;98536.38;;;19.57;35.89
10700;BME280;5401;41.986;21.452;2023-04-08T09:04:57;98543.44;;;19.58;35.60
10700;BME280;5401;41.986;21.452;2023-04-08T09:07:26;98550.19;;;19.50;35.54
10700;BME280;5401;41.986;21.452;2023-04-08T09:09:57;98551.38;;;18.87;35.27
10700;BME280;5401;41.986;21.452;2023-04-08T09:12:25;98538.88;;;18.50;35.48
10700;BME280;5401;41.986;21.452;2023-04-08T09:15:03;98539.97;;;18.54;36.32
10700;BME280;5401;41.986;21.452;2023-04-08T09:17:34;98544.78;;;18.42;35.96
10700;BME280;5401;41.986;21.452;2023-04-08T09:20:06;98526.69;;;17.79;36.42
10700;BME280;5401;41.986;21.452;2023-04-08T09:22:56;98538.56;;;17.52;36.15
10700;BME280;5401;41.986;21.452;2023-04-08T09:25:27;98540.69;;;17.71;35.95
10700;BME280;5401;41.986;21.452;2023-04-08T09:27:55;98520.22;;;17.80;36.48
10700;BME280;5401;41.986;21.452;2023-04-08T09:30:23;98528.75;;;18.15;36.22
10700;BME280;5401;41.986;21.452;2023-04-08T09:32:53;98528.06;;;18.24;36.00
10700;BME280;5401;41.986;21.452;2023-04-08T09:35:21;98537.91;;;18.09;35.85
10700;BME280;5401;41.986;21.452;2023-04-08T09:37:50;98529.53;;;17.89;36.21
10700;BME280;5401;41.986;21.452;2023-04-08T09:40:18;98530.09;;;17.91;35.18
10700;BME280;5401;41.986;21.452;2023-04-08T09:42:47;98543.34;;;18.09;35.29
10700;BME280;5401;41.986;21.452;2023-04-08T09:45:17;98530.72;;;17.98;34.98
10700;BME280;5401;41.986;21.452;2023-04-08T09:47:54;98518.13;;;18.08;35.88
10700;BME280;5401;41.986;21.452;2023-04-08T09:50:25;98526.41;;;18.23;35.50
10700;BME280;5401;41.986;21.452;2023-04-08T09:53:00;98527.38;;;18.38;35.83
10700;BME280;5401;41.986;21.452;2023-04-08T09:55:31;98510.25;;;18.33;35.64
10700;BME280;5401;41.986;21.452;2023-04-08T09:58:04;98507.53;;;18.33;35.15
10700;BME280;5401;41.986;21.452;2023-04-08T10:00:38;98501.91;;;18.70;35.40
10700;BME280;5401;41.986;21.452;2023-04-08T10:03:11;98503.84;;;19.16;35.06
10700;BME280;5401;41.986;21.452;2023-04-08T10:05:43;98492.81;;;18.91;34.90
10700;BME280;5401;41.986;21.452;2023-04-08T10:08:11;98499.59;;;18.93;34.99
10700;BME280;5401;41.986;21.452;2023-04-08T10:10:40;98497.69;;;18.94;35.04
10700;BME280;5401;41.986;21.452;2023-04-08T10:13:09;98499.09;;;18.96;35.05
10700;BME280;5401;41.986;21.452;2023-04-08T10:15:37;98498.63;;;18.68;34.66
10700;BME280;5401;41.986;21.452;2023-04-08T10:18:29;98489.22;;;18.81;34.91
10700;BME280;5401;41.986;21.452;2023-04-08T10:20:57;98495.09;;;19.04;34.37
10700;BME280;5401;41.986;21.452;2023-04-08T10:23:53;98491.31;;;19.10;34.80
10700;BME280;5401;41.986;21.452;2023-04-08T10:26:31;98480.09;;;18.96;34.84
10700;BME280;5401;41.986;21.452;2023-04-08T10:32:39;98481.84;;;18.76;35.42
10700;BME280;5401;41.986;21.452;2023-04-08T10:35:06;98478.44;;;18.91;35.41
10700;BME280;5401;41.986;21.452;2023-04-08T10:37:34;98471.34;;;19.30;35.12
10700;BME280;5401;41.986;21.452;2023-04-08T10:40:04;98466.38;;;19.78;34.76
10700;BME280;5401;41.986;21.452;2023-04-08T10:42:31;98459.97;;;20.14;34.66
10700;BME280;5401;41.986;21.452;2023-04-08T10:45:00;98465.09;;;20.05;34.80
10700;BME280;5401;41.986;21.452;2023-04-08T10:47:28;98456.13;;;20.00;34.47
10700;BME280;5401;41.986;21.452;2023-04-08T10:49:57;98448.34;;;19.48;35.03
10700;BME280;5401;41.986;21.452;2023-04-08T10:52:24;98445.38;;;19.49;34.75
10700;BME280;5401;41.986;21.452;2023-04-08T10:54:53;98441.16;;;19.17;35.54
10700;BME280;5401;41.986;21.452;2023-04-08T10:57:23;98446.72;;;18.96;35.72
10700;BME280;5401;41.986;21.452;2023-04-08T10:59:50;98440.44;;;18.91;35.74
10700;BME280;5401;41.986;21.452;2023-04-08T11:02:18;98440.34;;;18.76;35.49
10700;BME280;5401;41.986;21.452;2023-04-08T11:04:45;98433.38;;;18.49;35.19
10700;BME280;5401;41.986;21.452;2023-04-08T11:07:14;98430.75;;;18.58;35.96
10700;BME280;5401;41.986;21.452;2023-04-08T11:09:42;98420.09;;;18.93;35.59
10700;BME280;5401;41.986;21.452;2023-04-08T11:12:10;98433.00;;;18.76;35.04
10700;BME280;5401;41.986;21.452;2023-04-08T11:14:39;98432.34;;;18.55;35.46
10700;BME280;5401;41.986;21.452;2023-04-08T11:17:08;98426.59;;;18.46;35.68
10700;BME280;5401;41.986;21.452;2023-04-08T11:19:36;98434.84;;;18.66;34.83
10700;BME280;5401;41.986;21.452;2023-04-08T11:22:04;98408.34;;;18.78;34.50
10700;BME280;5401;41.986;21.452;2023-04-08T11:24:35;98414.91;;;18.87;34.29
10700;BME280;5401;41.986;21.452;2023-04-08T11:27:04;98410.44;;;18.66;34.81
10700;BME280;5401;41.986;21.452;2023-04-08T11:29:33;98407.84;;;18.81;35.08
10700;BME280;5401;41.986;21.452;2023-04-08T11:32:01;98394.31;;;18.91;34.28
10700;BME280;5401;41.986;21.452;2023-04-08T11:34:28;98392.56;;;19.21;34.26
10700;BME280;5401;41.986;21.452;2023-04-08T11:36:56;98393.22;;;19.47;34.52
10700;BME280;5401;41.986;21.452;2023-04-08T11:39:24;98394.28;;;19.46;34.17
10700;BME280;5401;41.986;21.452;2023-04-08T11:41:53;98384.75;;;19.39;34.05
10700;BME280;5401;41.986;21.452;2023-04-08T11:44:29;98373.88;;;19.34;34.41
10700;BME280;5401;41.986;21.452;2023-04-08T11:46:57;98374.75;;;19.54;33.87
10700;BME280;5401;41.986;21.452;2023-04-08T11:49:27;98366.31;;;19.46;34.03
10700;BME280;5401;41.986;21.452;2023-04-08T11:51:55;98372.72;;;19.10;34.47
10700;BME280;5401;41.986;21.452;2023-04-08T11:54:27;98355.88;;;18.58;34.59
10700;BME280;5401;41.986;21.452;2023-04-08T11:56:56;98362.28;;;18.42;34.80
10700;BME280;5401;41.986;21.452;2023-04-08T11:59:24;98366.84;;;18.82;34.80
10700;BME280;5401;41.986;21.452;2023-04-08T12:01:52;98363.50;;;19.16;34.64
10700;BME280;5401;41.986;21.452;2023-04-08T12:04:20;98361.94;;;19.30;34.86
10700;BME280;5401;41.986;21.452;2023-04-08T12:06:47;98360.06;;;19.35;34.36
10700;BME280;5401;41.986;21.452;2023-04-08T12:09:15;98361.97;;;19.35;34.22
10700;BME280;5401;41.986;21.452;2023-04-08T12:11:42;98360.31;;;19.39;34.14
10700;BME280;5401;41.986;21.452;2023-04-08T12:14:11;98360.06;;;19.35;34.53
10700;BME280;5401;41.986;21.452;2023-04-08T12:16:39;98345.38;;;19.36;34.30
10700;BME280;5401;41.986;21.452;2023-04-08T12:19:07;98351.59;;;19.22;34.50
10700;BME280;5401;41.986;21.452;2023-04-08T12:21:34;98339.84;;;18.97;35.00
10700;BME280;5401;41.986;21.452;2023-04-08T12:24:03;98336.50;;;18.85;34.41
10700;BME280;5401;41.986;21.452;2023-04-08T12:26:30;98341.75;;;19.01;34.46
10700;BME280;5401;41.986;21.452;2023-04-08T12:28:58;98338.34;;;19.35;34.43
10700;BME280;5401;41.986;21.452;2023-04-08T12:31:27;98336.75;;;19.69;34.27
10700;BME280;5401;41.986;21.452;2023-04-08T12:33:54;98332.44;;;19.83;34.12
10700;BME280;5401;41.986;21.452;2023-04-08T12:36:22;98324.22;;;19.48;34.50
10700;BME280;5401;41.986;21.452;2023-04-08T12:38:49;98325.84;;;19.44;34.59
10700;BME280;5401;41.986;21.452;2023-04-08T12:41:17;98331.00;;;19.36;34.29
10700;BME280;5401;41.986;21.452;2023-04-08T12:43:44;98326.94;;;19.38;34.54
10700;BME280;5401;41.986;21.452;2023-04-08T12:46:12;98307.06;;;19.13;34.88
10700;BME280;5401;41.986;21.452;2023-04-08T12:48:42;98298.09;;;19.13;35.01
10700;BME280;5401;41.986;21.452;2023-04-08T12:51:11;98302.97;;;19.16;34.22
10700;BME280;5401;41.986;21.452;2023-04-08T12:53:38;98301.09;;;19.21;34.43
10700;BME280;5401;41.986;21.452;2023-04-08T12:56:06;98298.41;;;19.31;34.34
10700;BME280;5401;41.986;21.452;2023-04-08T12:58:33;98289.72;;;19.39;34.77
10700;BME280;5401;41.986;21.452;2023-04-08T13:01:01;98298.72;;;19.49;34.51
10700;BME280;5401;41.986;21.452;2023-04-08T13:03:28;98291.38;;;19.55;34.07
10700;BME280;5401;41.986;21.452;2023-04-08T13:05:58;98302.53;;;19.68;34.24
10700;BME280;5401;41.986;21.452;2023-04-08T13:08:25;98288.38;;;19.71;34.03
10700;BME280;5401;41.986;21.452;2023-04-08T13:10:53;98297.63;;;19.75;34.09
10700;BME280;5401;41.986;21.452;2023-04-08T13:13:21;98280.50;;;19.65;34.41
10700;BME280;5401;41.986;21.452;2023-04-08T13:15:49;98279.66;;;19.34;34.16
10700;BME280;5401;41.986;21.452;2023-04-08T13:18:17;98277.25;;;19.33;34.25